createdAt,value
2022-10-13T02:00:52.150Z,91.06
2022-10-13T02:01:12.715Z,91.06
2022-10-13T02:01:33.291Z,91.06
2022-10-13T02:01:53.877Z,91.06
2022-10-13T02:02:14.269Z,90.95
2022-10-13T02:02:34.851Z,90.85
2022-10-13T02:02:55.439Z,90.95
2022-10-13T02:03:16.005Z,90.95
2022-10-13T02:03:36.590Z,90.95
2022-10-13T02:03:57.204Z,90.85
2022-10-13T02:04:17.767Z,90.64
2022-10-13T02:04:38.350Z,90.54
2022-10-13T02:04:58.932Z,90.75
2022-10-13T02:05:19.515Z,90.85
2022-10-13T02:05:40.094Z,91.06
2022-10-13T02:06:00.518Z,91.06
2022-10-13T02:06:21.094Z,91.16
2022-10-13T02:06:41.678Z,91.37
2022-10-13T02:07:02.260Z,91.37
2022-10-13T02:07:22.842Z,91.16
2022-10-13T02:07:43.424Z,90.95
2022-10-13T02:08:04.006Z,90.85
2022-10-13T02:08:24.590Z,90.95
2022-10-13T02:08:45.171Z,91.06
2022-10-13T02:09:05.753Z,91.06
2022-10-13T02:09:26.340Z,91.06
2022-10-13T02:09:46.927Z,91.06
2022-10-13T02:10:07.508Z,91.16
2022-10-13T02:10:28.095Z,91.27
2022-10-13T02:10:48.677Z,91.06
2022-10-13T02:11:09.278Z,90.75
2022-10-13T02:11:29.857Z,90.33
2022-10-13T02:11:50.436Z,90.23
2022-10-13T02:12:11.018Z,90.44
2022-10-13T02:12:31.597Z,90.54
2022-10-13T02:12:52.180Z,90.75
2022-10-13T02:13:12.764Z,90.85
2022-10-13T02:13:33.157Z,90.95
2022-10-13T02:13:53.739Z,90.95
2022-10-13T02:14:14.323Z,91.16
2022-10-13T02:14:34.905Z,91.16
2022-10-13T02:14:55.488Z,91.27
2022-10-13T02:15:16.074Z,91.16
2022-10-13T02:15:36.655Z,91.06
2022-10-13T02:15:57.255Z,91.06
2022-10-13T02:16:17.834Z,91.06
2022-10-13T02:16:38.414Z,91.06
2022-10-13T02:16:58.998Z,91.06
2022-10-13T02:17:19.577Z,91.06
2022-10-13T02:17:40.159Z,90.95
2022-10-13T02:18:00.737Z,90.85
2022-10-13T02:18:21.321Z,90.85
2022-10-13T02:18:41.900Z,90.95
2022-10-13T02:19:02.480Z,90.85
2022-10-13T02:19:23.098Z,90.75
2022-10-13T02:19:43.679Z,90.75
2022-10-13T02:20:04.073Z,90.75
2022-10-13T02:20:24.468Z,90.85
2022-10-13T02:20:45.063Z,90.85
2022-10-13T02:21:05.635Z,90.75
2022-10-13T02:21:26.231Z,90.75
2022-10-13T02:21:46.813Z,90.75
2022-10-13T02:22:07.390Z,90.64
2022-10-13T02:22:27.977Z,90.64
2022-10-13T02:22:48.559Z,90.64
2022-10-13T02:23:09.141Z,90.54
2022-10-13T02:23:29.719Z,90.64
2022-10-13T02:23:50.302Z,90.64
2022-10-13T02:24:10.882Z,90.54
2022-10-13T02:24:31.464Z,90.33
2022-10-13T02:24:52.039Z,90.33
2022-10-13T02:25:12.622Z,90.64
2022-10-13T02:25:33.204Z,91.06
2022-10-13T02:25:53.787Z,91.37
2022-10-13T02:26:14.364Z,91.37
2022-10-13T02:26:34.965Z,91.37
2022-10-13T02:26:55.547Z,91.27
2022-10-13T02:27:16.130Z,91.27
2022-10-13T02:27:36.710Z,91.16
2022-10-13T02:27:57.290Z,91.06
2022-10-13T02:28:17.925Z,90.95
2022-10-13T02:28:38.573Z,90.95
2022-10-13T02:28:59.130Z,90.95
2022-10-13T02:29:19.715Z,91.06
2022-10-13T02:29:40.291Z,90.85
2022-10-13T02:30:00.872Z,90.89
2022-10-13T02:30:21.457Z,90.89
2022-10-13T02:30:42.036Z,90.69
2022-10-13T02:31:02.646Z,90.58
2022-10-13T02:31:23.200Z,90.69
2022-10-13T02:31:43.795Z,91.10
2022-10-13T02:32:04.380Z,91.31
2022-10-13T02:32:24.962Z,91.41
2022-10-13T02:32:45.540Z,91.62
2022-10-13T02:33:06.120Z,91.83
2022-10-13T02:33:26.703Z,91.83
2022-10-13T02:33:47.285Z,91.62
2022-10-13T02:34:07.867Z,91.52
2022-10-13T02:34:28.443Z,91.41
2022-10-13T02:34:49.028Z,91.41
2022-10-13T02:35:09.606Z,91.52
2022-10-13T02:35:30.189Z,91.52
2022-10-13T02:35:50.771Z,91.52
2022-10-13T02:36:11.356Z,91.52
2022-10-13T02:36:31.933Z,91.62
2022-10-13T02:36:52.533Z,91.62
2022-10-13T02:37:13.111Z,91.72
2022-10-13T02:37:33.698Z,91.83
2022-10-13T02:37:54.277Z,91.83
2022-10-13T02:38:14.862Z,91.93
2022-10-13T02:38:35.448Z,91.93
2022-10-13T02:38:56.026Z,92.03
2022-10-13T02:39:16.608Z,92.03
2022-10-13T02:39:37.004Z,92.03
2022-10-13T02:39:57.590Z,91.83
2022-10-13T02:40:18.176Z,91.93
2022-10-13T02:40:38.757Z,91.83
2022-10-13T02:40:59.339Z,91.52
2022-10-13T02:41:19.923Z,91.20
2022-10-13T02:41:40.495Z,90.79
2022-10-13T02:42:01.090Z,90.48
2022-10-13T02:42:22.114Z,90.27
2022-10-13T02:42:42.847Z,90.06
2022-10-13T02:43:03.427Z,89.96
2022-10-13T02:43:24.009Z,89.96
2022-10-13T02:43:44.589Z,89.96
2022-10-13T02:44:05.177Z,90.06
2022-10-13T02:44:25.764Z,90.58
2022-10-13T02:44:46.343Z,91.10
2022-10-13T02:45:06.746Z,91.31
2022-10-13T02:45:27.321Z,91.62
2022-10-13T02:45:47.718Z,91.93
2022-10-13T02:46:08.318Z,92.03
2022-10-13T02:46:28.874Z,92.14
2022-10-13T02:46:49.459Z,92.35
2022-10-13T02:47:10.053Z,92.35
2022-10-13T02:47:30.640Z,92.45
2022-10-13T02:47:51.225Z,92.55
2022-10-13T02:48:11.805Z,92.45
2022-10-13T02:48:32.384Z,92.24
2022-10-13T02:48:52.983Z,92.03
2022-10-13T02:49:13.563Z,92.03
2022-10-13T02:49:34.145Z,91.83
2022-10-13T02:49:54.727Z,91.62
2022-10-13T02:50:15.312Z,91.62
2022-10-13T02:50:35.704Z,91.83
2022-10-13T02:50:56.287Z,92.24
2022-10-13T02:51:16.872Z,92.55
2022-10-13T02:51:40.073Z,93.07
2022-10-13T02:52:01.150Z,93.28
2022-10-13T02:52:22.091Z,93.38
2022-10-13T02:52:42.890Z,93.49
2022-10-13T02:53:03.473Z,93.49
2022-10-13T02:53:24.056Z,93.59
2022-10-13T02:53:44.638Z,93.49
2022-10-13T02:54:05.219Z,93.38
2022-10-13T02:54:25.806Z,93.38
2022-10-13T02:54:46.388Z,93.49
2022-10-13T02:55:06.968Z,93.59
2022-10-13T02:55:27.551Z,93.59
2022-10-13T02:55:48.132Z,93.70
2022-10-13T02:56:08.713Z,93.70
2022-10-13T02:56:29.296Z,93.70
2022-10-13T02:56:49.693Z,93.59
2022-10-13T02:57:10.273Z,93.70
2022-10-13T02:57:30.873Z,93.59
2022-10-13T02:57:51.457Z,93.38
2022-10-13T02:58:12.039Z,93.18
2022-10-13T02:58:32.429Z,92.97
2022-10-13T02:58:53.012Z,92.97
2022-10-13T02:59:13.592Z,92.97
2022-10-13T02:59:33.990Z,92.97
2022-10-13T02:59:54.570Z,92.97
2022-10-13T03:00:15.155Z,93.18
2022-10-13T03:00:35.575Z,93.49
2022-10-13T03:00:56.212Z,93.59
2022-10-13T03:01:16.841Z,93.80
2022-10-13T03:01:37.407Z,93.70
2022-10-13T03:01:57.985Z,93.80
2022-10-13T03:02:19.209Z,93.80
2022-10-13T03:02:39.965Z,93.70
2022-10-13T03:03:00.360Z,93.70
2022-10-13T03:03:20.941Z,93.70
2022-10-13T03:03:41.520Z,93.80
2022-10-13T03:04:01.918Z,93.90
2022-10-13T03:04:22.505Z,94.01
2022-10-13T03:04:42.896Z,94.11
2022-10-13T03:05:03.289Z,94.21
2022-10-13T03:05:23.869Z,94.17
2022-10-13T03:05:44.452Z,94.06
2022-10-13T03:06:05.035Z,94.06
2022-10-13T03:06:25.620Z,93.90
2022-10-13T03:06:46.015Z,94.01
2022-10-13T03:07:06.597Z,93.85
2022-10-13T03:07:26.993Z,93.85
2022-10-13T03:07:47.593Z,93.75
2022-10-13T03:08:08.176Z,93.85
2022-10-13T03:08:28.758Z,93.96
2022-10-13T03:08:49.341Z,94.17
2022-10-13T03:09:09.923Z,94.37
2022-10-13T03:09:30.500Z,94.37
2022-10-13T03:09:51.082Z,94.37
2022-10-13T03:10:11.667Z,94.27
2022-10-13T03:10:32.246Z,94.17
2022-10-13T03:10:52.830Z,94.17
2022-10-13T03:11:13.410Z,94.06
2022-10-13T03:11:33.993Z,93.96
2022-10-13T03:11:54.577Z,93.96
2022-10-13T03:12:15.161Z,94.17
2022-10-13T03:12:35.746Z,94.27
2022-10-13T03:12:56.351Z,94.37
2022-10-13T03:13:16.743Z,94.48
2022-10-13T03:13:37.324Z,94.58
2022-10-13T03:13:57.909Z,94.58
2022-10-13T03:14:18.493Z,94.58
2022-10-13T03:14:39.073Z,94.58
2022-10-13T03:14:59.478Z,94.68
2022-10-13T03:15:20.050Z,94.68
2022-10-13T03:15:40.633Z,94.68
2022-10-13T03:16:01.219Z,94.68
2022-10-13T03:16:21.934Z,94.68
2022-10-13T03:16:42.471Z,94.68
2022-10-13T03:17:03.057Z,94.79
2022-10-13T03:17:23.638Z,94.68
2022-10-13T03:17:44.218Z,94.79
2022-10-13T03:18:04.821Z,94.68
2022-10-13T03:18:25.399Z,94.68
2022-10-13T03:18:45.982Z,94.68
2022-10-13T03:19:06.565Z,94.79
2022-10-13T03:19:27.150Z,94.89
2022-10-13T03:19:47.737Z,94.89
2022-10-13T03:20:08.315Z,95.00
2022-10-13T03:20:28.894Z,95.10
2022-10-13T03:20:49.478Z,95.00
2022-10-13T03:21:10.062Z,95.10
2022-10-13T03:21:30.461Z,95.20
2022-10-13T03:21:51.045Z,95.20
2022-10-13T03:22:11.624Z,95.20
2022-10-13T03:22:32.210Z,95.10
2022-10-13T03:22:52.602Z,95.10
2022-10-13T03:23:13.202Z,95.10
2022-10-13T03:23:33.612Z,95.20
2022-10-13T03:23:54.176Z,95.20
2022-10-13T03:24:14.762Z,95.10
2022-10-13T03:24:35.348Z,95.20
2022-10-13T03:24:55.936Z,95.20
2022-10-13T03:25:16.514Z,95.20
2022-10-13T03:25:37.095Z,95.20
2022-10-13T03:25:57.674Z,95.20
2022-10-13T03:26:18.273Z,95.10
2022-10-13T03:26:38.843Z,95.10
2022-10-13T03:26:59.427Z,95.00
2022-10-13T03:27:20.010Z,95.10
2022-10-13T03:27:40.597Z,95.20
2022-10-13T03:28:01.177Z,95.20
2022-10-13T03:28:21.799Z,95.31
2022-10-13T03:28:42.412Z,95.31
2022-10-13T03:29:02.940Z,95.41
2022-10-13T03:29:23.522Z,95.51
2022-10-13T03:29:43.914Z,95.51
2022-10-13T03:30:04.498Z,95.51
2022-10-13T03:30:25.083Z,95.62
2022-10-13T03:30:45.663Z,95.51
2022-10-13T03:31:06.256Z,95.41
2022-10-13T03:31:26.862Z,95.41
2022-10-13T03:31:47.423Z,95.41
2022-10-13T03:32:07.994Z,95.41
2022-10-13T03:32:28.572Z,95.31
2022-10-13T03:32:49.154Z,95.20
2022-10-13T03:33:09.745Z,95.20
2022-10-13T03:33:30.343Z,95.20
2022-10-13T03:33:50.926Z,95.10
2022-10-13T03:34:11.515Z,95.10
2022-10-13T03:34:32.092Z,95.10
2022-10-13T03:34:52.677Z,95.10
2022-10-13T03:35:13.256Z,95.20
2022-10-13T03:35:33.838Z,95.20
2022-10-13T03:35:54.423Z,95.20
2022-10-13T03:36:15.002Z,95.31
2022-10-13T03:36:35.585Z,95.31
2022-10-13T03:36:56.163Z,95.37
2022-10-13T03:37:16.746Z,95.51
2022-10-13T03:37:37.328Z,95.41
2022-10-13T03:37:57.907Z,95.20
2022-10-13T03:38:18.495Z,95.10
2022-10-13T03:38:39.086Z,95.10
2022-10-13T03:38:59.665Z,95.00
2022-10-13T03:39:20.248Z,95.10
2022-10-13T03:39:40.830Z,95.26
2022-10-13T03:40:01.412Z,95.26
2022-10-13T03:40:21.994Z,95.26
2022-10-13T03:40:42.567Z,95.16
2022-10-13T03:41:02.960Z,95.16
2022-10-13T03:41:23.543Z,95.16
2022-10-13T03:41:44.143Z,95.16
2022-10-13T03:42:04.719Z,95.37
2022-10-13T03:42:25.297Z,95.47
2022-10-13T03:42:45.878Z,95.47
2022-10-13T03:43:06.461Z,95.47
2022-10-13T03:43:27.042Z,95.37
2022-10-13T03:43:47.635Z,95.26
2022-10-13T03:44:08.215Z,95.26
2022-10-13T03:44:28.795Z,95.26
2022-10-13T03:44:53.661Z,95.16
2022-10-13T03:45:09.786Z,95.16
2022-10-13T03:45:30.181Z,95.16
2022-10-13T03:45:50.763Z,95.26
2022-10-13T03:46:11.346Z,95.26
2022-10-13T03:46:31.946Z,95.26
2022-10-13T03:46:52.507Z,95.26
2022-10-13T03:47:13.087Z,95.26
2022-10-13T03:47:33.668Z,95.37
2022-10-13T03:47:54.248Z,95.26
2022-10-13T03:48:14.835Z,95.16
2022-10-13T03:48:35.409Z,95.16
2022-10-13T03:48:56.005Z,95.16
2022-10-13T03:49:16.585Z,95.16
2022-10-13T03:49:37.168Z,95.16
2022-10-13T03:49:57.752Z,95.16
2022-10-13T03:50:18.359Z,95.26
2022-10-13T03:50:38.918Z,95.16
2022-10-13T03:50:59.505Z,95.16
2022-10-13T03:51:20.086Z,95.16
2022-10-13T03:51:40.665Z,95.06
2022-10-13T03:52:01.248Z,95.06
2022-10-13T03:52:22.185Z,94.95
2022-10-13T03:52:42.918Z,94.95
2022-10-13T03:53:03.502Z,94.95
2022-10-13T03:53:24.081Z,95.06
2022-10-13T03:53:44.669Z,95.06
2022-10-13T03:54:05.275Z,95.16
2022-10-13T03:54:25.659Z,95.26
2022-10-13T03:54:46.051Z,95.26
2022-10-13T03:55:06.634Z,95.26
2022-10-13T03:55:27.028Z,95.16
2022-10-13T03:55:47.625Z,95.26
2022-10-13T03:56:08.203Z,95.26
2022-10-13T03:56:28.789Z,95.26
2022-10-13T03:56:49.369Z,95.26
2022-10-13T03:57:09.951Z,95.37
2022-10-13T03:57:30.343Z,95.26
2022-10-13T03:57:50.927Z,95.26
2022-10-13T03:58:11.509Z,95.16
2022-10-13T03:58:32.100Z,95.16
2022-10-13T03:58:52.671Z,95.16
2022-10-13T03:59:13.273Z,94.95
2022-10-13T03:59:36.726Z,94.95
2022-10-13T03:59:57.672Z,94.85
2022-10-13T04:00:18.261Z,94.85
2022-10-13T04:00:38.836Z,94.85
2022-10-13T04:00:59.425Z,95.06
2022-10-13T04:01:20.079Z,95.06
2022-10-13T04:01:40.899Z,95.06
2022-10-13T04:02:01.547Z,95.06
2022-10-13T04:02:22.195Z,94.95
2022-10-13T04:02:42.924Z,94.95
2022-10-13T04:03:03.499Z,94.85
2022-10-13T04:03:24.083Z,94.95
2022-10-13T04:03:44.667Z,94.95
2022-10-13T04:04:05.261Z,94.95
2022-10-13T04:04:25.655Z,94.95
2022-10-13T04:04:46.238Z,95.06
2022-10-13T04:05:06.826Z,95.06
2022-10-13T04:05:27.409Z,95.06
2022-10-13T04:05:47.992Z,95.06
2022-10-13T04:06:08.580Z,94.95
2022-10-13T04:06:29.164Z,95.06
2022-10-13T04:06:49.748Z,95.06
2022-10-13T04:07:10.331Z,95.16
2022-10-13T04:07:30.911Z,95.16
2022-10-13T04:07:51.304Z,95.37
2022-10-13T04:08:11.697Z,95.47
2022-10-13T04:08:32.089Z,95.47
2022-10-13T04:08:52.487Z,95.47
2022-10-13T04:09:12.894Z,95.47
2022-10-13T04:09:33.475Z,95.47
2022-10-13T04:09:54.050Z,95.47
2022-10-13T04:10:14.636Z,95.37
2022-10-13T04:10:35.216Z,95.37
2022-10-13T04:10:55.797Z,95.47
2022-10-13T04:11:16.376Z,95.47
2022-10-13T04:11:36.961Z,95.47
2022-10-13T04:11:57.542Z,95.37
2022-10-13T04:12:20.862Z,95.37
2022-10-13T04:12:41.837Z,95.37
2022-10-13T04:13:02.450Z,95.37
2022-10-13T04:13:23.033Z,95.37
2022-10-13T04:13:43.612Z,95.47
2022-10-13T04:14:04.219Z,95.47
2022-10-13T04:14:24.794Z,95.47
2022-10-13T04:14:45.192Z,95.57
2022-10-13T04:15:05.797Z,95.57
2022-10-13T04:15:26.188Z,95.57
2022-10-13T04:15:46.769Z,95.57
2022-10-13T04:16:07.348Z,95.47
2022-10-13T04:16:27.931Z,95.47
2022-10-13T04:16:48.570Z,95.37
2022-10-13T04:17:09.107Z,95.26
2022-10-13T04:17:29.686Z,95.26
2022-10-13T04:17:50.267Z,95.37
2022-10-13T04:18:10.850Z,95.37
2022-10-13T04:18:31.430Z,95.37
2022-10-13T04:18:52.010Z,95.47
2022-10-13T04:19:12.613Z,95.47
2022-10-13T04:19:33.195Z,95.47
2022-10-13T04:19:53.785Z,95.47
2022-10-13T04:20:14.365Z,95.47
2022-10-13T04:20:34.949Z,95.47
2022-10-13T04:20:55.531Z,95.37
2022-10-13T04:21:15.928Z,95.37
2022-10-13T04:21:36.509Z,95.26
2022-10-13T04:21:57.117Z,95.26
2022-10-13T04:22:18.047Z,95.26
2022-10-13T04:22:38.863Z,95.37
2022-10-13T04:22:59.443Z,95.37
2022-10-13T04:23:20.028Z,95.37
2022-10-13T04:23:40.618Z,95.26
2022-10-13T04:24:01.193Z,95.26
2022-10-13T04:24:21.791Z,95.26
2022-10-13T04:24:42.373Z,95.26
2022-10-13T04:25:02.955Z,95.37
2022-10-13T04:25:23.541Z,95.43
2022-10-13T04:25:44.123Z,95.43
2022-10-13T04:26:04.704Z,95.47
2022-10-13T04:26:25.285Z,95.47
2022-10-13T04:26:45.877Z,95.43
2022-10-13T04:27:06.450Z,95.53
2022-10-13T04:27:27.032Z,95.64
2022-10-13T04:27:47.613Z,95.57
2022-10-13T04:28:08.008Z,95.53
2022-10-13T04:28:28.638Z,95.53
2022-10-13T04:28:49.283Z,95.43
2022-10-13T04:29:09.844Z,95.43
2022-10-13T04:29:30.438Z,95.43
2022-10-13T04:29:51.026Z,95.43
2022-10-13T04:30:13.562Z,95.43
2022-10-13T04:30:34.259Z,95.57
2022-10-13T04:30:54.841Z,95.64
2022-10-13T04:31:15.420Z,95.74
2022-10-13T04:31:36.011Z,95.84
2022-10-13T04:31:56.603Z,95.95
2022-10-13T04:32:17.514Z,95.95
2022-10-13T04:32:38.236Z,95.84
2022-10-13T04:32:58.818Z,95.84
2022-10-13T04:33:19.400Z,95.84
2022-10-13T04:33:39.982Z,95.84
2022-10-13T04:34:00.567Z,95.84
2022-10-13T04:34:20.980Z,95.74
2022-10-13T04:34:41.560Z,95.64
2022-10-13T04:35:02.144Z,95.53
2022-10-13T04:35:22.727Z,95.53
2022-10-13T04:35:43.356Z,95.43
2022-10-13T04:36:03.946Z,95.43
2022-10-13T04:36:24.527Z,95.43
2022-10-13T04:36:45.106Z,95.43
2022-10-13T04:37:05.687Z,95.32
2022-10-13T04:37:26.088Z,95.43
2022-10-13T04:37:46.669Z,95.32
2022-10-13T04:38:07.057Z,95.32
2022-10-13T04:38:27.638Z,95.32
2022-10-13T04:38:48.215Z,95.32
2022-10-13T04:39:08.798Z,95.43
2022-10-13T04:39:29.391Z,95.43
2022-10-13T04:39:49.980Z,95.43
2022-10-13T04:40:10.561Z,95.32
2022-10-13T04:40:31.135Z,95.43
2022-10-13T04:40:51.722Z,95.53
2022-10-13T04:41:12.299Z,95.53
2022-10-13T04:41:32.880Z,95.64
2022-10-13T04:41:53.469Z,95.64
2022-10-13T04:42:14.052Z,95.64
2022-10-13T04:42:34.636Z,95.74
2022-10-13T04:42:55.216Z,95.74
2022-10-13T04:43:15.796Z,95.74
2022-10-13T04:43:36.383Z,95.64
2022-10-13T04:43:56.961Z,95.64
2022-10-13T04:44:17.545Z,95.64
2022-10-13T04:44:38.140Z,95.64
2022-10-13T04:44:58.727Z,95.64
2022-10-13T04:45:19.307Z,95.64
2022-10-13T04:45:39.895Z,95.53
2022-10-13T04:46:00.488Z,95.53
2022-10-13T04:46:21.058Z,95.53
2022-10-13T04:46:41.640Z,95.53
2022-10-13T04:47:02.243Z,95.53
2022-10-13T04:47:22.806Z,95.43
2022-10-13T04:47:43.196Z,95.32
2022-10-13T04:48:03.779Z,95.32
2022-10-13T04:48:24.359Z,95.32
2022-10-13T04:48:44.944Z,95.18
2022-10-13T04:49:05.527Z,95.22
2022-10-13T04:49:26.131Z,95.18
2022-10-13T04:49:46.708Z,95.07
2022-10-13T04:50:07.292Z,95.12
2022-10-13T04:50:27.872Z,95.12
2022-10-13T04:50:48.460Z,95.07
2022-10-13T04:51:09.044Z,94.97
2022-10-13T04:51:29.445Z,95.01
2022-10-13T04:51:50.028Z,95.07
2022-10-13T04:52:10.604Z,95.12
2022-10-13T04:52:31.192Z,95.07
2022-10-13T04:52:51.772Z,95.12
2022-10-13T04:53:16.779Z,95.07
2022-10-13T04:53:32.747Z,95.07
2022-10-13T04:53:53.778Z,95.22
2022-10-13T04:54:14.363Z,95.07
2022-10-13T04:54:34.960Z,95.18
2022-10-13T04:54:55.540Z,95.18
2022-10-13T04:55:16.131Z,95.28
2022-10-13T04:55:36.705Z,95.18
2022-10-13T04:55:57.281Z,95.28
2022-10-13T04:56:17.867Z,95.28
2022-10-13T04:56:38.442Z,95.39
2022-10-13T04:56:59.027Z,95.39
2022-10-13T04:57:19.607Z,95.39
2022-10-13T04:57:40.191Z,95.39
2022-10-13T04:58:00.772Z,95.39
2022-10-13T04:58:21.353Z,95.39
2022-10-13T04:58:41.933Z,95.39
2022-10-13T04:59:02.512Z,95.39
2022-10-13T04:59:23.095Z,95.28
2022-10-13T04:59:43.690Z,95.28
2022-10-13T05:00:04.091Z,95.28
2022-10-13T05:00:24.690Z,95.28
2022-10-13T05:00:45.305Z,95.28
2022-10-13T05:01:05.689Z,95.28
2022-10-13T05:01:26.273Z,95.28
2022-10-13T05:01:46.851Z,95.28
2022-10-13T05:02:07.564Z,95.28
2022-10-13T05:02:28.095Z,95.18
2022-10-13T05:02:48.491Z,95.18
2022-10-13T05:03:09.078Z,95.18
2022-10-13T05:03:29.660Z,95.18
2022-10-13T05:03:50.240Z,95.28
2022-10-13T05:04:10.825Z,95.28
2022-10-13T05:04:31.240Z,95.39
2022-10-13T05:04:51.829Z,95.39
2022-10-13T05:05:12.414Z,95.49
2022-10-13T05:05:32.995Z,95.59
2022-10-13T05:05:53.580Z,95.59
2022-10-13T05:06:14.159Z,95.59
2022-10-13T05:06:34.741Z,95.70
2022-10-13T05:07:16.435Z,95.70
2022-10-13T05:07:18.352Z,95.70
2022-10-13T05:07:39.263Z,95.59
2022-10-13T05:07:59.844Z,95.49
2022-10-13T05:08:20.429Z,95.49
2022-10-13T05:08:41.005Z,95.49
2022-10-13T05:09:01.587Z,95.49
2022-10-13T05:09:22.168Z,95.49
2022-10-13T05:09:42.769Z,95.59
2022-10-13T05:10:03.361Z,95.70
2022-10-13T05:10:23.945Z,95.70
2022-10-13T05:10:44.526Z,95.70
2022-10-13T05:11:05.104Z,95.80
2022-10-13T05:11:25.688Z,95.90
2022-10-13T05:11:46.270Z,95.90
2022-10-13T05:12:06.851Z,95.90
2022-10-13T05:12:27.441Z,95.80
2022-10-13T05:12:47.836Z,95.80
2022-10-13T05:13:08.420Z,95.70
2022-10-13T05:13:29.022Z,95.59
2022-10-13T05:13:49.608Z,95.59
2022-10-13T05:14:10.187Z,95.70
2022-10-13T05:14:30.604Z,95.70
2022-10-13T05:14:51.188Z,95.80
2022-10-13T05:15:11.766Z,95.80
2022-10-13T05:15:32.347Z,95.80
2022-10-13T05:15:52.744Z,95.80
2022-10-13T05:16:13.334Z,95.80
2022-10-13T05:16:33.717Z,95.80
2022-10-13T05:16:54.302Z,95.80
2022-10-13T05:17:14.963Z,95.90
2022-10-13T05:17:35.812Z,96.01
2022-10-13T05:17:56.394Z,96.01
2022-10-13T05:18:16.793Z,95.90
2022-10-13T05:18:37.371Z,95.90
2022-10-13T05:18:57.958Z,95.80
2022-10-13T05:19:18.564Z,95.80
2022-10-13T05:19:39.131Z,95.80
2022-10-13T05:19:59.754Z,95.80
2022-10-13T05:20:20.336Z,95.90
2022-10-13T05:20:40.915Z,95.96
2022-10-13T05:21:01.500Z,96.06
2022-10-13T05:21:22.080Z,96.06
2022-10-13T05:21:42.660Z,96.06
2022-10-13T05:22:03.238Z,96.06
2022-10-13T05:22:23.824Z,96.06
2022-10-13T05:22:44.404Z,95.96
2022-10-13T05:23:04.799Z,95.96
2022-10-13T05:23:25.370Z,95.96
2022-10-13T05:23:45.961Z,95.96
2022-10-13T05:24:06.539Z,95.96
2022-10-13T05:24:27.117Z,95.96
2022-10-13T05:24:47.717Z,96.06
2022-10-13T05:25:08.293Z,96.06
2022-10-13T05:25:32.987Z,96.06
2022-10-13T05:25:49.278Z,96.06
2022-10-13T05:26:09.862Z,96.06
2022-10-13T05:26:30.440Z,95.96
2022-10-13T05:26:51.027Z,95.96
2022-10-13T05:27:11.616Z,95.86
2022-10-13T05:27:32.191Z,95.86
2022-10-13T05:27:52.776Z,95.75
2022-10-13T05:28:13.376Z,95.75
2022-10-13T05:28:33.979Z,95.75
2022-10-13T05:28:54.572Z,95.75
2022-10-13T05:29:15.125Z,95.65
2022-10-13T05:29:35.708Z,95.65
2022-10-13T05:29:56.306Z,95.86
2022-10-13T05:30:16.891Z,95.96
2022-10-13T05:30:37.474Z,95.96
2022-10-13T05:30:58.059Z,95.96
2022-10-13T05:31:18.638Z,95.96
2022-10-13T05:31:39.217Z,95.96
2022-10-13T05:31:59.798Z,95.86
2022-10-13T05:32:20.920Z,95.86
2022-10-13T05:32:41.624Z,95.96
2022-10-13T05:33:02.206Z,95.96
2022-10-13T05:33:22.785Z,95.96
2022-10-13T05:33:43.369Z,95.96
2022-10-13T05:34:03.946Z,95.86
2022-10-13T05:34:24.343Z,95.75
2022-10-13T05:34:44.940Z,95.75
2022-10-13T05:35:05.524Z,95.65
2022-10-13T05:35:26.107Z,95.54
2022-10-13T05:35:46.688Z,95.44
2022-10-13T05:36:07.269Z,95.44
2022-10-13T05:36:27.858Z,95.44
2022-10-13T05:36:48.436Z,95.44
2022-10-13T05:37:09.021Z,95.34
2022-10-13T05:37:29.423Z,95.44
2022-10-13T05:37:50.002Z,95.44
2022-10-13T05:38:10.581Z,95.44
2022-10-13T05:38:31.166Z,95.44
2022-10-13T05:38:51.566Z,95.44
2022-10-13T05:39:12.151Z,95.54
2022-10-13T05:39:32.538Z,95.65
2022-10-13T05:39:53.130Z,95.65
2022-10-13T05:40:13.712Z,95.65
2022-10-13T05:40:34.289Z,95.65
2022-10-13T05:40:54.687Z,95.65
2022-10-13T05:41:15.268Z,95.75
2022-10-13T05:41:35.849Z,95.71
2022-10-13T05:41:56.438Z,95.75
2022-10-13T05:42:17.249Z,95.71
2022-10-13T05:42:37.950Z,95.75
2022-10-13T05:42:58.343Z,95.75
2022-10-13T05:43:18.925Z,95.81
2022-10-13T05:43:39.512Z,95.92
2022-10-13T05:44:00.099Z,95.92
2022-10-13T05:44:20.682Z,95.96
2022-10-13T05:44:41.257Z,95.81
2022-10-13T05:45:01.859Z,95.81
2022-10-13T05:45:22.443Z,95.81
2022-10-13T05:45:43.023Z,95.81
2022-10-13T05:46:03.623Z,95.92
2022-10-13T05:46:24.186Z,95.92
2022-10-13T05:46:44.607Z,95.92
2022-10-13T05:47:07.671Z,96.02
2022-10-13T05:47:28.416Z,95.92
2022-10-13T05:47:48.972Z,95.92
2022-10-13T05:48:09.555Z,95.92
2022-10-13T05:48:30.137Z,96.02
2022-10-13T05:48:50.534Z,96.02
2022-10-13T05:49:11.116Z,96.02
2022-10-13T05:49:31.709Z,96.02
2022-10-13T05:49:52.303Z,96.02
2022-10-13T05:50:12.881Z,96.02
2022-10-13T05:50:33.461Z,96.02
2022-10-13T05:50:53.877Z,95.92
2022-10-13T05:51:14.457Z,95.92
2022-10-13T05:51:35.044Z,95.92
2022-10-13T05:51:55.630Z,95.92
2022-10-13T05:52:16.236Z,95.81
2022-10-13T05:52:36.794Z,95.71
2022-10-13T05:52:57.375Z,95.71
2022-10-13T05:53:17.957Z,95.61
2022-10-13T05:53:38.540Z,95.50
2022-10-13T05:53:59.170Z,95.50
2022-10-13T05:54:19.563Z,95.61
2022-10-13T05:54:40.149Z,95.81
2022-10-13T05:55:00.741Z,96.23
2022-10-13T05:55:21.325Z,96.33
2022-10-13T05:55:41.908Z,96.44
2022-10-13T05:56:02.498Z,96.54
2022-10-13T05:56:23.076Z,96.54
2022-10-13T05:56:43.659Z,96.44
2022-10-13T05:57:04.240Z,96.44
2022-10-13T05:57:24.635Z,96.33
2022-10-13T05:57:45.038Z,96.23
2022-10-13T05:58:05.626Z,96.23
2022-10-13T05:58:26.206Z,96.12
2022-10-13T05:58:46.805Z,96.02
2022-10-13T05:59:07.403Z,95.92
2022-10-13T05:59:28.003Z,95.81
2022-10-13T05:59:48.587Z,95.81
2022-10-13T06:00:09.203Z,95.71
2022-10-13T06:00:29.807Z,95.71
2022-10-13T06:00:50.381Z,95.71
2022-10-13T06:01:10.964Z,95.71
2022-10-13T06:01:31.633Z,95.71
2022-10-13T06:01:52.235Z,95.81
2022-10-13T06:02:12.641Z,95.92
2022-10-13T06:02:33.219Z,96.02
2022-10-13T06:02:53.778Z,96.02
2022-10-13T06:03:14.361Z,96.02
2022-10-13T06:03:34.942Z,96.12
2022-10-13T06:03:55.524Z,96.12
2022-10-13T06:04:16.107Z,96.12
2022-10-13T06:04:36.695Z,96.23
2022-10-13T06:04:57.279Z,96.23
2022-10-13T06:05:17.876Z,96.23
2022-10-13T06:05:38.460Z,96.23
2022-10-13T06:05:59.039Z,96.23
2022-10-13T06:06:19.625Z,96.12
2022-10-13T06:06:40.212Z,96.02
2022-10-13T06:07:00.788Z,95.92
2022-10-13T06:07:21.375Z,95.81
2022-10-13T06:07:41.784Z,95.71
2022-10-13T06:08:02.378Z,95.61
2022-10-13T06:08:22.962Z,95.61
2022-10-13T06:08:43.559Z,95.71
2022-10-13T06:09:04.144Z,95.81
2022-10-13T06:09:24.730Z,95.92
2022-10-13T06:09:45.315Z,95.92
2022-10-13T06:10:05.891Z,95.98
2022-10-13T06:10:26.525Z,96.02
2022-10-13T06:10:47.118Z,95.98
2022-10-13T06:11:07.698Z,96.02
2022-10-13T06:11:28.281Z,95.98
2022-10-13T06:11:48.860Z,95.87
2022-10-13T06:12:09.442Z,95.87
2022-10-13T06:12:30.024Z,95.92
2022-10-13T06:12:50.606Z,95.87
2022-10-13T06:13:11.190Z,95.87
2022-10-13T06:13:31.770Z,95.87
2022-10-13T06:13:52.351Z,95.87
2022-10-13T06:14:12.931Z,95.87
2022-10-13T06:14:33.514Z,95.77
2022-10-13T06:14:54.095Z,95.67
2022-10-13T06:15:14.679Z,95.56
2022-10-13T06:15:35.278Z,95.46
2022-10-13T06:15:55.859Z,95.46
2022-10-13T06:16:16.447Z,95.46
2022-10-13T06:16:37.034Z,95.46
2022-10-13T06:16:57.604Z,95.36
2022-10-13T06:17:18.185Z,95.25
2022-10-13T06:17:38.606Z,95.25
2022-10-13T06:17:59.162Z,95.36
2022-10-13T06:18:19.747Z,95.25
2022-10-13T06:18:40.331Z,95.25
2022-10-13T06:19:00.911Z,95.15
2022-10-13T06:19:21.494Z,95.15
2022-10-13T06:19:41.889Z,95.04
2022-10-13T06:20:02.299Z,95.04
2022-10-13T06:20:22.895Z,94.94
2022-10-13T06:20:43.475Z,94.94
2022-10-13T06:21:04.065Z,94.94
2022-10-13T06:21:24.648Z,95.04
2022-10-13T06:21:45.228Z,95.15
2022-10-13T06:22:05.816Z,95.15
2022-10-13T06:22:26.395Z,95.04
2022-10-13T06:22:46.975Z,95.04
2022-10-13T06:23:07.558Z,94.94
2022-10-13T06:23:28.141Z,94.94
2022-10-13T06:23:48.725Z,95.04
2022-10-13T06:24:09.305Z,95.15
2022-10-13T06:24:29.888Z,95.15
2022-10-13T06:24:50.474Z,95.15
2022-10-13T06:25:11.053Z,95.25
2022-10-13T06:25:31.654Z,95.25
2022-10-13T06:25:52.242Z,95.25